sensor_id;sensor_type;location;lat;lon;timestamp;temperature;humidity
6110;DHT22;3085;49.444;11.054;2022-08-21T00:01:28;20.00;99.90
6110;DHT22;3085;49.444;11.054;2022-08-21T00:03:55;20.00;99.90
6110;DHT22;3085;49.444;11.054;2022-08-21T00:06:23;20.00;99.90
6110;DHT22;3085;49.444;11.054;2022-08-21T00:08:50;20.00;99.90
6110;DHT22;3085;49.444;11.054;2022-08-21T00:11:19;20.00;99.90
6110;DHT22;3085;49.444;11.054;2022-08-21T00:13:46;19.90;99.90
6110;DHT22;3085;49.444;11.054;2022-08-21T00:16:13;19.90;99.90
6110;DHT22;3085;49.444;11.054;2022-08-21T00:18:39;20.00;99.90
6110;DHT22;3085;49.444;11.054;2022-08-21T00:21:07;19.90;99.90
6110;DHT22;3085;49.444;11.054;2022-08-21T00:23:34;19.90;99.90
6110;DHT22;3085;49.444;11.054;2022-08-21T00:26:02;19.90;99.90
6110;DHT22;3085;49.444;11.054;2022-08-21T00:28:31;19.90;99.90
6110;DHT22;3085;49.444;11.054;2022-08-21T00:30:58;19.90;99.90
6110;DHT22;3085;49.444;11.054;2022-08-21T00:33:25;19.90;99.90
6110;DHT22;3085;49.444;11.054;2022-08-21T00:35:52;19.80;99.90
6110;DHT22;3085;49.444;11.054;2022-08-21T00:38:19;19.80;99.90
6110;DHT22;3085;49.444;11.054;2022-08-21T00:40:48;19.80;99.90
6110;DHT22;3085;49.444;11.054;2022-08-21T00:43:20;19.70;99.90
6110;DHT22;3085;49.444;11.054;2022-08-21T00:45:48;19.90;99.90
6110;DHT22;3085;49.444;11.054;2022-08-21T00:48:16;19.70;99.90
6110;DHT22;3085;49.444;11.054;2022-08-21T00:50:49;19.70;99.90
6110;DHT22;3085;49.444;11.054;2022-08-21T00:53:30;19.60;99.90
6110;DHT22;3085;49.444;11.054;2022-08-21T00:55:57;19.40;99.90
6110;DHT22;3085;49.444;11.054;2022-08-21T00:58:26;19.50;99.90
6110;DHT22;3085;49.444;11.054;2022-08-21T01:00:54;19.60;99.90
6110;DHT22;3085;49.444;11.054;2022-08-21T01:03:23;19.50;99.90
6110;DHT22;3085;49.444;11.054;2022-08-21T01:05:51;19.50;99.90
6110;DHT22;3085;49.444;11.054;2022-08-21T01:08:19;19.50;99.90
6110;DHT22;3085;49.444;11.054;2022-08-21T01:10:49;19.40;99.90
6110;DHT22;3085;49.444;11.054;2022-08-21T01:13:17;19.30;99.90
6110;DHT22;3085;49.444;11.054;2022-08-21T01:15:47;19.10;99.90
6110;DHT22;3085;49.444;11.054;2022-08-21T01:18:15;19.10;99.90
6110;DHT22;3085;49.444;11.054;2022-08-21T01:23:17;19.10;99.90
6110;DHT22;3085;49.444;11.054;2022-08-21T01:25:44;19.10;99.90
6110;DHT22;3085;49.444;11.054;2022-08-21T01:28:13;19.00;99.90
6110;DHT22;3085;49.444;11.054;2022-08-21T01:30:42;19.00;99.90
6110;DHT22;3085;49.444;11.054;2022-08-21T01:33:09;19.10;99.90
6110;DHT22;3085;49.444;11.054;2022-08-21T01:35:36;19.10;99.90
6110;DHT22;3085;49.444;11.054;2022-08-21T01:38:04;19.00;99.90
6110;DHT22;3085;49.444;11.054;2022-08-21T01:40:32;19.10;99.90
6110;DHT22;3085;49.444;11.054;2022-08-21T01:42:59;18.90;99.90
6110;DHT22;3085;49.444;11.054;2022-08-21T01:45:26;18.90;99.90
6110;DHT22;3085;49.444;11.054;2022-08-21T01:47:53;18.80;99.90
6110;DHT22;3085;49.444;11.054;2022-08-21T01:50:20;18.70;99.90
6110;DHT22;3085;49.444;11.054;2022-08-21T01:52:48;18.80;99.90
6110;DHT22;3085;49.444;11.054;2022-08-21T01:55:16;18.80;99.90
6110;DHT22;3085;49.444;11.054;2022-08-21T01:57:45;18.70;99.90
6110;DHT22;3085;49.444;11.054;2022-08-21T02:00:15;18.70;99.90
6110;DHT22;3085;49.444;11.054;2022-08-21T02:02:42;18.70;99.90
6110;DHT22;3085;49.444;11.054;2022-08-21T02:05:11;18.70;99.90
6110;DHT22;3085;49.444;11.054;2022-08-21T02:07:40;18.70;99.90
6110;DHT22;3085;49.444;11.054;2022-08-21T02:10:08;18.80;99.90
6110;DHT22;3085;49.444;11.054;2022-08-21T02:12:35;18.70;99.90
6110;DHT22;3085;49.444;11.054;2022-08-21T02:15:05;18.70;99.90
6110;DHT22;3085;49.444;11.054;2022-08-21T02:17:38;18.70;99.90
6110;DHT22;3085;49.444;11.054;2022-08-21T02:20:06;18.70;99.90
6110;DHT22;3085;49.444;11.054;2022-08-21T02:22:33;18.70;99.90
6110;DHT22;3085;49.444;11.054;2022-08-21T02:24:59;18.80;99.90
6110;DHT22;3085;49.444;11.054;2022-08-21T02:27:26;18.70;99.90
6110;DHT22;3085;49.444;11.054;2022-08-21T02:29:54;18.70;99.90
6110;DHT22;3085;49.444;11.054;2022-08-21T02:32:23;18.70;99.90
6110;DHT22;3085;49.444;11.054;2022-08-21T02:34:50;18.80;99.90
6110;DHT22;3085;49.444;11.054;2022-08-21T02:37:17;18.80;99.90
6110;DHT22;3085;49.444;11.054;2022-08-21T02:39:44;18.80;99.90
6110;DHT22;3085;49.444;11.054;2022-08-21T02:42:11;18.80;99.90
6110;DHT22;3085;49.444;11.054;2022-08-21T02:44:38;18.90;99.90
6110;DHT22;3085;49.444;11.054;2022-08-21T02:47:05;18.80;99.90
6110;DHT22;3085;49.444;11.054;2022-08-21T02:49:33;18.80;99.90
6110;DHT22;3085;49.444;11.054;2022-08-21T02:52:00;18.70;99.90
6110;DHT22;3085;49.444;11.054;2022-08-21T02:54:27;18.70;99.90
6110;DHT22;3085;49.444;11.054;2022-08-21T02:56:53;18.70;99.90
6110;DHT22;3085;49.444;11.054;2022-08-21T02:59:20;18.60;99.90
6110;DHT22;3085;49.444;11.054;2022-08-21T03:01:47;18.60;99.90
6110;DHT22;3085;49.444;11.054;2022-08-21T03:04:14;18.60;99.90
6110;DHT22;3085;49.444;11.054;2022-08-21T03:06:42;18.40;99.90
6110;DHT22;3085;49.444;11.054;2022-08-21T03:09:09;18.20;99.90
6110;DHT22;3085;49.444;11.054;2022-08-21T03:11:37;18.20;99.90
6110;DHT22;3085;49.444;11.054;2022-08-21T03:14:04;18.20;99.90
6110;DHT22;3085;49.444;11.054;2022-08-21T03:16:31;18.20;99.90
6110;DHT22;3085;49.444;11.054;2022-08-21T03:18:57;18.20;99.90
6110;DHT22;3085;49.444;11.054;2022-08-21T03:21:25;18.30;99.90
6110;DHT22;3085;49.444;11.054;2022-08-21T03:23:53;18.30;99.90
6110;DHT22;3085;49.444;11.054;2022-08-21T03:26:20;18.20;99.90
6110;DHT22;3085;49.444;11.054;2022-08-21T03:28:47;18.10;99.90
6110;DHT22;3085;49.444;11.054;2022-08-21T03:31:14;18.00;99.90
6110;DHT22;3085;49.444;11.054;2022-08-21T03:33:40;17.90;99.90
6110;DHT22;3085;49.444;11.054;2022-08-21T03:36:08;17.90;99.90
6110;DHT22;3085;49.444;11.054;2022-08-21T03:38:37;17.90;99.90
6110;DHT22;3085;49.444;11.054;2022-08-21T03:41:06;17.90;99.90
6110;DHT22;3085;49.444;11.054;2022-08-21T03:43:35;17.90;99.90
6110;DHT22;3085;49.444;11.054;2022-08-21T03:46:03;17.80;99.90
6110;DHT22;3085;49.444;11.054;2022-08-21T03:48:30;17.70;99.90
6110;DHT22;3085;49.444;11.054;2022-08-21T03:50:57;17.60;99.90
6110;DHT22;3085;49.444;11.054;2022-08-21T03:53:24;17.60;99.90
6110;DHT22;3085;49.444;11.054;2022-08-21T03:55:52;17.70;99.90
6110;DHT22;3085;49.444;11.054;2022-08-21T03:58:22;17.70;99.90
6110;DHT22;3085;49.444;11.054;2022-08-21T04:00:51;17.70;99.90
6110;DHT22;3085;49.444;11.054;2022-08-21T04:03:20;17.70;99.90
6110;DHT22;3085;49.444;11.054;2022-08-21T04:05:47;17.70;99.90
6110;DHT22;3085;49.444;11.054;2022-08-21T04:08:15;17.60;99.90
6110;DHT22;3085;49.444;11.054;2022-08-21T04:10:46;17.50;99.90
6110;DHT22;3085;49.444;11.054;2022-08-21T04:13:13;17.40;99.90
6110;DHT22;3085;49.444;11.054;2022-08-21T04:15:42;17.40;99.90
6110;DHT22;3085;49.444;11.054;2022-08-21T04:18:09;17.40;99.90
6110;DHT22;3085;49.444;11.054;2022-08-21T04:20:36;17.40;99.90
6110;DHT22;3085;49.444;11.054;2022-08-21T04:23:03;17.50;99.90
6110;DHT22;3085;49.444;11.054;2022-08-21T04:25:30;17.60;99.90
6110;DHT22;3085;49.444;11.054;2022-08-21T04:27:57;17.60;99.90
6110;DHT22;3085;49.444;11.054;2022-08-21T04:30:24;17.70;99.90
6110;DHT22;3085;49.444;11.054;2022-08-21T04:32:52;17.70;99.90
6110;DHT22;3085;49.444;11.054;2022-08-21T04:35:21;17.70;99.90
6110;DHT22;3085;49.444;11.054;2022-08-21T04:37:48;17.70;99.90
6110;DHT22;3085;49.444;11.054;2022-08-21T04:40:18;17.80;99.90
6110;DHT22;3085;49.444;11.054;2022-08-21T04:42:46;17.90;99.90
6110;DHT22;3085;49.444;11.054;2022-08-21T04:45:17;17.90;99.90
6110;DHT22;3085;49.444;11.054;2022-08-21T04:47:46;17.90;99.90
6110;DHT22;3085;49.444;11.054;2022-08-21T04:50:14;18.00;99.90
6110;DHT22;3085;49.444;11.054;2022-08-21T04:52:41;18.00;99.90
6110;DHT22;3085;49.444;11.054;2022-08-21T04:55:08;18.10;99.90
6110;DHT22;3085;49.444;11.054;2022-08-21T04:57:35;18.10;99.90
6110;DHT22;3085;49.444;11.054;2022-08-21T05:00:04;18.10;99.90
6110;DHT22;3085;49.444;11.054;2022-08-21T05:02:32;18.10;99.90
6110;DHT22;3085;49.444;11.054;2022-08-21T05:04:59;18.10;99.90
6110;DHT22;3085;49.444;11.054;2022-08-21T05:07:29;18.00;99.90
6110;DHT22;3085;49.444;11.054;2022-08-21T05:09:57;18.00;99.90
6110;DHT22;3085;49.444;11.054;2022-08-21T05:12:25;17.90;99.90
6110;DHT22;3085;49.444;11.054;2022-08-21T05:14:52;17.90;99.90
6110;DHT22;3085;49.444;11.054;2022-08-21T05:17:18;17.80;99.90
6110;DHT22;3085;49.444;11.054;2022-08-21T05:19:45;17.80;99.90
6110;DHT22;3085;49.444;11.054;2022-08-21T05:22:19;17.90;99.90
6110;DHT22;3085;49.444;11.054;2022-08-21T05:24:47;17.80;99.90
6110;DHT22;3085;49.444;11.054;2022-08-21T05:27:14;17.60;99.90
6110;DHT22;3085;49.444;11.054;2022-08-21T05:29:40;17.60;99.90
6110;DHT22;3085;49.444;11.054;2022-08-21T05:32:09;17.50;99.90
6110;DHT22;3085;49.444;11.054;2022-08-21T05:34:36;17.50;99.90
6110;DHT22;3085;49.444;11.054;2022-08-21T05:37:03;17.60;99.90
6110;DHT22;3085;49.444;11.054;2022-08-21T05:39:30;17.60;99.90
6110;DHT22;3085;49.444;11.054;2022-08-21T05:41:58;17.60;99.90
6110;DHT22;3085;49.444;11.054;2022-08-21T05:44:25;17.60;99.90
6110;DHT22;3085;49.444;11.054;2022-08-21T05:46:52;17.60;99.90
6110;DHT22;3085;49.444;11.054;2022-08-21T05:49:19;17.60;99.90
6110;DHT22;3085;49.444;11.054;2022-08-21T05:51:45;17.60;99.90
6110;DHT22;3085;49.444;11.054;2022-08-21T05:54:12;17.70;99.90
6110;DHT22;3085;49.444;11.054;2022-08-21T05:56:39;17.70;99.90
6110;DHT22;3085;49.444;11.054;2022-08-21T05:59:11;17.70;99.90
6110;DHT22;3085;49.444;11.054;2022-08-21T06:01:39;17.60;99.90
6110;DHT22;3085;49.444;11.054;2022-08-21T06:04:06;17.40;99.90
6110;DHT22;3085;49.444;11.054;2022-08-21T06:06:33;17.40;99.90
6110;DHT22;3085;49.444;11.054;2022-08-21T06:09:00;17.50;99.90
6110;DHT22;3085;49.444;11.054;2022-08-21T06:11:27;17.60;99.90
6110;DHT22;3085;49.444;11.054;2022-08-21T06:13:54;17.40;99.90
6110;DHT22;3085;49.444;11.054;2022-08-21T06:16:24;17.50;99.90
6110;DHT22;3085;49.444;11.054;2022-08-21T06:18:52;17.60;99.90
6110;DHT22;3085;49.444;11.054;2022-08-21T06:21:19;17.70;99.90
6110;DHT22;3085;49.444;11.054;2022-08-21T06:23:45;17.70;99.90
6110;DHT22;3085;49.444;11.054;2022-08-21T06:26:13;17.60;99.90
6110;DHT22;3085;49.444;11.054;2022-08-21T06:28:41;17.70;99.90
6110;DHT22;3085;49.444;11.054;2022-08-21T06:31:13;17.80;99.90
6110;DHT22;3085;49.444;11.054;2022-08-21T06:33:41;17.70;99.90
6110;DHT22;3085;49.444;11.054;2022-08-21T06:36:08;17.80;99.90
6110;DHT22;3085;49.444;11.054;2022-08-21T06:38:36;17.80;99.90
6110;DHT22;3085;49.444;11.054;2022-08-21T06:41:03;17.80;99.90
6110;DHT22;3085;49.444;11.054;2022-08-21T06:43:30;17.90;99.90
6110;DHT22;3085;49.444;11.054;2022-08-21T06:45:57;17.80;99.90
6110;DHT22;3085;49.444;11.054;2022-08-21T06:48:24;17.60;99.90
6110;DHT22;3085;49.444;11.054;2022-08-21T06:50:52;17.70;99.90
6110;DHT22;3085;49.444;11.054;2022-08-21T06:53:20;17.60;99.90
6110;DHT22;3085;49.444;11.054;2022-08-21T06:55:48;17.70;99.90
6110;DHT22;3085;49.444;11.054;2022-08-21T06:58:15;17.70;99.90
6110;DHT22;3085;49.444;11.054;2022-08-21T07:00:46;17.70;99.90
6110;DHT22;3085;49.444;11.054;2022-08-21T07:03:18;17.70;99.90
6110;DHT22;3085;49.444;11.054;2022-08-21T07:05:44;17.80;99.90
6110;DHT22;3085;49.444;11.054;2022-08-21T07:08:12;17.90;99.90
6110;DHT22;3085;49.444;11.054;2022-08-21T07:10:39;17.90;99.90
6110;DHT22;3085;49.444;11.054;2022-08-21T07:13:06;17.90;99.90
6110;DHT22;3085;49.444;11.054;2022-08-21T07:15:33;17.90;99.90
6110;DHT22;3085;49.444;11.054;2022-08-21T07:18:00;17.90;99.90
6110;DHT22;3085;49.444;11.054;2022-08-21T07:20:27;17.90;99.90
6110;DHT22;3085;49.444;11.054;2022-08-21T07:22:55;18.00;99.90
6110;DHT22;3085;49.444;11.054;2022-08-21T07:25:23;17.90;99.90
6110;DHT22;3085;49.444;11.054;2022-08-21T07:27:50;18.00;99.90
6110;DHT22;3085;49.444;11.054;2022-08-21T07:30:17;18.00;99.90
6110;DHT22;3085;49.444;11.054;2022-08-21T07:32:44;17.90;99.90
6110;DHT22;3085;49.444;11.054;2022-08-21T07:35:11;17.80;99.90
6110;DHT22;3085;49.444;11.054;2022-08-21T07:37:38;17.70;99.90
6110;DHT22;3085;49.444;11.054;2022-08-21T07:40:05;17.70;99.90
6110;DHT22;3085;49.444;11.054;2022-08-21T07:42:33;17.90;99.90
6110;DHT22;3085;49.444;11.054;2022-08-21T07:45:00;17.90;99.90
6110;DHT22;3085;49.444;11.054;2022-08-21T07:47:27;18.00;99.90
6110;DHT22;3085;49.444;11.054;2022-08-21T07:49:54;18.00;99.90
6110;DHT22;3085;49.444;11.054;2022-08-21T07:52:20;18.10;99.90
6110;DHT22;3085;49.444;11.054;2022-08-21T07:54:47;18.10;99.90
6110;DHT22;3085;49.444;11.054;2022-08-21T07:57:14;18.20;99.90
6110;DHT22;3085;49.444;11.054;2022-08-21T07:59:42;18.20;99.90
6110;DHT22;3085;49.444;11.054;2022-08-21T08:02:09;18.20;99.90
6110;DHT22;3085;49.444;11.054;2022-08-21T08:04:36;18.20;99.90
6110;DHT22;3085;49.444;11.054;2022-08-21T08:07:02;18.30;99.90
6110;DHT22;3085;49.444;11.054;2022-08-21T08:09:29;18.30;99.90
6110;DHT22;3085;49.444;11.054;2022-08-21T08:11:56;18.20;99.90
6110;DHT22;3085;49.444;11.054;2022-08-21T08:14:23;18.20;99.90
6110;DHT22;3085;49.444;11.054;2022-08-21T08:16:51;18.20;99.90
6110;DHT22;3085;49.444;11.054;2022-08-21T08:19:17;18.40;99.90
6110;DHT22;3085;49.444;11.054;2022-08-21T08:21:44;18.30;99.90
6110;DHT22;3085;49.444;11.054;2022-08-21T08:24:11;18.30;99.90
6110;DHT22;3085;49.444;11.054;2022-08-21T08:26:38;18.40;99.90
6110;DHT22;3085;49.444;11.054;2022-08-21T08:29:04;18.30;99.90
6110;DHT22;3085;49.444;11.054;2022-08-21T08:31:31;18.10;99.90
6110;DHT22;3085;49.444;11.054;2022-08-21T08:34:00;18.20;99.90
6110;DHT22;3085;49.444;11.054;2022-08-21T08:36:32;18.20;99.90
6110;DHT22;3085;49.444;11.054;2022-08-21T08:38:59;18.30;99.90
6110;DHT22;3085;49.444;11.054;2022-08-21T08:41:27;18.30;99.90
6110;DHT22;3085;49.444;11.054;2022-08-21T08:43:55;18.20;99.90
6110;DHT22;3085;49.444;11.054;2022-08-21T08:46:30;18.20;99.90
6110;DHT22;3085;49.444;11.054;2022-08-21T08:49:02;18.30;99.90
6110;DHT22;3085;49.444;11.054;2022-08-21T08:51:39;18.50;99.90
6110;DHT22;3085;49.444;11.054;2022-08-21T08:54:10;18.70;99.90
6110;DHT22;3085;49.444;11.054;2022-08-21T08:56:38;18.80;99.90
6110;DHT22;3085;49.444;11.054;2022-08-21T08:59:09;18.80;99.90
6110;DHT22;3085;49.444;11.054;2022-08-21T09:01:39;19.00;99.90
6110;DHT22;3085;49.444;11.054;2022-08-21T09:04:10;19.10;99.90
6110;DHT22;3085;49.444;11.054;2022-08-21T09:06:46;19.00;99.90
6110;DHT22;3085;49.444;11.054;2022-08-21T09:09:25;19.30;99.90
6110;DHT22;3085;49.444;11.054;2022-08-21T09:12:00;19.40;99.90
6110;DHT22;3085;49.444;11.054;2022-08-21T09:14:38;19.50;99.90
6110;DHT22;3085;49.444;11.054;2022-08-21T09:17:17;19.50;99.90
6110;DHT22;3085;49.444;11.054;2022-08-21T09:19:56;19.50;99.90
6110;DHT22;3085;49.444;11.054;2022-08-21T09:22:35;19.50;99.90
6110;DHT22;3085;49.444;11.054;2022-08-21T09:25:12;19.60;99.90
6110;DHT22;3085;49.444;11.054;2022-08-21T09:27:41;19.50;99.90
6110;DHT22;3085;49.444;11.054;2022-08-21T09:30:09;19.70;99.90
6110;DHT22;3085;49.444;11.054;2022-08-21T09:32:38;19.80;99.90
6110;DHT22;3085;49.444;11.054;2022-08-21T09:35:09;19.90;99.90
6110;DHT22;3085;49.444;11.054;2022-08-21T09:37:47;20.00;99.90
6110;DHT22;3085;49.444;11.054;2022-08-21T09:40:19;19.60;99.90
6110;DHT22;3085;49.444;11.054;2022-08-21T09:42:55;19.90;99.90
6110;DHT22;3085;49.444;11.054;2022-08-21T09:45:22;20.10;99.90
6110;DHT22;3085;49.444;11.054;2022-08-21T09:47:48;20.10;99.90
6110;DHT22;3085;49.444;11.054;2022-08-21T09:50:20;20.10;99.90
6110;DHT22;3085;49.444;11.054;2022-08-21T09:52:49;20.20;99.90
6110;DHT22;3085;49.444;11.054;2022-08-21T09:55:21;20.30;99.90
6110;DHT22;3085;49.444;11.054;2022-08-21T09:58:07;20.50;99.90
6110;DHT22;3085;49.444;11.054;2022-08-21T10:00:35;20.60;99.90
6110;DHT22;3085;49.444;11.054;2022-08-21T10:03:11;20.70;99.90
6110;DHT22;3085;49.444;11.054;2022-08-21T10:05:40;20.90;99.90
6110;DHT22;3085;49.444;11.054;2022-08-21T10:08:18;21.10;99.90
6110;DHT22;3085;49.444;11.054;2022-08-21T10:10:45;21.20;99.90
6110;DHT22;3085;49.444;11.054;2022-08-21T10:13:14;21.30;99.90
6110;DHT22;3085;49.444;11.054;2022-08-21T10:15:51;21.40;99.90
6110;DHT22;3085;49.444;11.054;2022-08-21T10:18:24;21.40;99.90
6110;DHT22;3085;49.444;11.054;2022-08-21T10:21:01;21.40;99.90
6110;DHT22;3085;49.444;11.054;2022-08-21T10:23:39;21.50;99.90
6110;DHT22;3085;49.444;11.054;2022-08-21T10:26:17;21.40;99.90
6110;DHT22;3085;49.444;11.054;2022-08-21T10:28:51;21.40;99.90
6110;DHT22;3085;49.444;11.054;2022-08-21T10:31:29;21.60;99.90
6110;DHT22;3085;49.444;11.054;2022-08-21T10:34:10;21.60;99.90
6110;DHT22;3085;49.444;11.054;2022-08-21T10:36:46;21.40;99.90
6110;DHT22;3085;49.444;11.054;2022-08-21T10:39:18;21.40;99.90
6110;DHT22;3085;49.444;11.054;2022-08-21T10:42:02;21.50;99.90
6110;DHT22;3085;49.444;11.054;2022-08-21T10:44:38;21.60;99.90
6110;DHT22;3085;49.444;11.054;2022-08-21T10:47:12;21.40;99.90
6110;DHT22;3085;49.444;11.054;2022-08-21T10:49:47;21.50;99.90
6110;DHT22;3085;49.444;11.054;2022-08-21T10:52:36;21.70;99.90
6110;DHT22;3085;49.444;11.054;2022-08-21T10:55:08;21.80;99.90
6110;DHT22;3085;49.444;11.054;2022-08-21T10:57:49;21.70;99.90
6110;DHT22;3085;49.444;11.054;2022-08-21T11:00:19;21.80;99.90
6110;DHT22;3085;49.444;11.054;2022-08-21T11:02:50;21.80;99.90
6110;DHT22;3085;49.444;11.054;2022-08-21T11:05:21;21.80;99.90
6110;DHT22;3085;49.444;11.054;2022-08-21T11:07:55;21.90;99.90
6110;DHT22;3085;49.444;11.054;2022-08-21T11:10:26;22.00;99.90
6110;DHT22;3085;49.444;11.054;2022-08-21T11:12:56;22.20;99.90
6110;DHT22;3085;49.444;11.054;2022-08-21T11:15:36;22.20;99.90
6110;DHT22;3085;49.444;11.054;2022-08-21T11:18:15;22.30;99.90
6110;DHT22;3085;49.444;11.054;2022-08-21T11:20:50;22.40;99.90
6110;DHT22;3085;49.444;11.054;2022-08-21T11:23:25;22.50;99.90
6110;DHT22;3085;49.444;11.054;2022-08-21T11:25:57;22.40;99.90
6110;DHT22;3085;49.444;11.054;2022-08-21T11:28:28;22.50;99.90
6110;DHT22;3085;49.444;11.054;2022-08-21T11:31:05;22.50;99.90
6110;DHT22;3085;49.444;11.054;2022-08-21T11:33:49;22.50;99.90
6110;DHT22;3085;49.444;11.054;2022-08-21T11:36:29;22.50;99.90
6110;DHT22;3085;49.444;11.054;2022-08-21T11:39:06;22.60;99.90
6110;DHT22;3085;49.444;11.054;2022-08-21T11:41:40;22.60;99.90
6110;DHT22;3085;49.444;11.054;2022-08-21T11:44:15;22.80;99.90
6110;DHT22;3085;49.444;11.054;2022-08-21T11:46:49;23.00;99.90
6110;DHT22;3085;49.444;11.054;2022-08-21T11:49:34;23.00;99.90
6110;DHT22;3085;49.444;11.054;2022-08-21T11:52:11;22.90;99.90
6110;DHT22;3085;49.444;11.054;2022-08-21T11:54:46;22.90;99.90
6110;DHT22;3085;49.444;11.054;2022-08-21T11:57:19;23.00;99.90
6110;DHT22;3085;49.444;11.054;2022-08-21T11:59:51;23.00;99.90
6110;DHT22;3085;49.444;11.054;2022-08-21T12:02:22;23.10;99.90
6110;DHT22;3085;49.444;11.054;2022-08-21T12:04:53;23.20;99.90
6110;DHT22;3085;49.444;11.054;2022-08-21T12:07:31;23.20;99.90
6110;DHT22;3085;49.444;11.054;2022-08-21T12:10:00;23.40;99.90
6110;DHT22;3085;49.444;11.054;2022-08-21T12:12:30;23.40;99.90
6110;DHT22;3085;49.444;11.054;2022-08-21T12:15:25;23.40;99.90
6110;DHT22;3085;49.444;11.054;2022-08-21T12:17:58;23.30;99.90
6110;DHT22;3085;49.444;11.054;2022-08-21T12:20:43;23.30;99.90
6110;DHT22;3085;49.444;11.054;2022-08-21T12:23:24;23.40;99.90
6110;DHT22;3085;49.444;11.054;2022-08-21T12:26:03;23.40;99.90
6110;DHT22;3085;49.444;11.054;2022-08-21T12:28:36;23.50;99.90
6110;DHT22;3085;49.444;11.054;2022-08-21T12:31:03;23.70;99.90
6110;DHT22;3085;49.444;11.054;2022-08-21T12:33:32;23.90;99.90
6110;DHT22;3085;49.444;11.054;2022-08-21T12:36:06;24.00;99.90
6110;DHT22;3085;49.444;11.054;2022-08-21T12:38:42;23.90;99.90
6110;DHT22;3085;49.444;11.054;2022-08-21T12:41:19;23.80;99.90
6110;DHT22;3085;49.444;11.054;2022-08-21T12:43:52;23.70;99.90
6110;DHT22;3085;49.444;11.054;2022-08-21T12:46:27;23.80;99.90
6110;DHT22;3085;49.444;11.054;2022-08-21T12:48:58;23.90;99.90
6110;DHT22;3085;49.444;11.054;2022-08-21T12:51:31;23.90;99.90
6110;DHT22;3085;49.444;11.054;2022-08-21T12:53:59;24.00;99.90
6110;DHT22;3085;49.444;11.054;2022-08-21T12:56:32;24.00;99.90
6110;DHT22;3085;49.444;11.054;2022-08-21T12:59:02;24.10;99.90
6110;DHT22;3085;49.444;11.054;2022-08-21T13:01:32;24.30;99.90
6110;DHT22;3085;49.444;11.054;2022-08-21T13:04:02;24.40;99.90
6110;DHT22;3085;49.444;11.054;2022-08-21T13:06:37;24.50;99.90
6110;DHT22;3085;49.444;11.054;2022-08-21T13:09:06;24.60;99.90
6110;DHT22;3085;49.444;11.054;2022-08-21T13:11:36;24.40;99.90
6110;DHT22;3085;49.444;11.054;2022-08-21T13:14:03;24.50;99.90
6110;DHT22;3085;49.444;11.054;2022-08-21T13:16:31;24.50;99.90
6110;DHT22;3085;49.444;11.054;2022-08-21T13:19:01;24.50;99.90
6110;DHT22;3085;49.444;11.054;2022-08-21T13:21:30;24.60;99.90
6110;DHT22;3085;49.444;11.054;2022-08-21T13:24:12;24.70;99.90
6110;DHT22;3085;49.444;11.054;2022-08-21T13:26:41;24.80;99.90
6110;DHT22;3085;49.444;11.054;2022-08-21T13:29:10;24.80;99.90
6110;DHT22;3085;49.444;11.054;2022-08-21T13:31:39;24.50;99.90
6110;DHT22;3085;49.444;11.054;2022-08-21T13:34:09;24.40;99.90
6110;DHT22;3085;49.444;11.054;2022-08-21T13:36:40;24.30;99.90
6110;DHT22;3085;49.444;11.054;2022-08-21T13:39:11;24.30;99.90
6110;DHT22;3085;49.444;11.054;2022-08-21T13:41:42;24.40;99.90
6110;DHT22;3085;49.444;11.054;2022-08-21T13:44:17;24.40;99.90
6110;DHT22;3085;49.444;11.054;2022-08-21T13:46:45;24.30;99.90
6110;DHT22;3085;49.444;11.054;2022-08-21T13:49:15;24.50;99.90
6110;DHT22;3085;49.444;11.054;2022-08-21T13:51:43;24.50;99.90
6110;DHT22;3085;49.444;11.054;2022-08-21T13:54:23;24.40;99.90
6110;DHT22;3085;49.444;11.054;2022-08-21T13:56:53;24.50;99.90
6110;DHT22;3085;49.444;11.054;2022-08-21T13:59:26;24.60;99.90
6110;DHT22;3085;49.444;11.054;2022-08-21T14:01:56;24.70;99.90
6110;DHT22;3085;49.444;11.054;2022-08-21T14:04:32;24.70;99.90
6110;DHT22;3085;49.444;11.054;2022-08-21T14:07:00;24.90;99.90
6110;DHT22;3085;49.444;11.054;2022-08-21T14:09:32;25.00;99.90
6110;DHT22;3085;49.444;11.054;2022-08-21T14:12:02;24.80;99.90
6110;DHT22;3085;49.444;11.054;2022-08-21T14:14:39;25.00;99.90
6110;DHT22;3085;49.444;11.054;2022-08-21T14:17:10;25.10;99.90
6110;DHT22;3085;49.444;11.054;2022-08-21T14:19:42;25.10;99.90
6110;DHT22;3085;49.444;11.054;2022-08-21T14:22:27;25.20;99.90
6110;DHT22;3085;49.444;11.054;2022-08-21T14:24:59;25.30;99.90
6110;DHT22;3085;49.444;11.054;2022-08-21T14:27:30;25.20;99.90
6110;DHT22;3085;49.444;11.054;2022-08-21T14:29:59;25.20;99.90
6110;DHT22;3085;49.444;11.054;2022-08-21T14:32:28;25.10;99.90
6110;DHT22;3085;49.444;11.054;2022-08-21T14:34:57;25.20;99.90
6110;DHT22;3085;49.444;11.054;2022-08-21T14:37:24;25.20;99.90
6110;DHT22;3085;49.444;11.054;2022-08-21T14:39:52;25.20;99.90
6110;DHT22;3085;49.444;11.054;2022-08-21T14:42:19;25.20;99.90
6110;DHT22;3085;49.444;11.054;2022-08-21T14:44:48;25.20;99.90
6110;DHT22;3085;49.444;11.054;2022-08-21T14:47:15;25.30;99.90
6110;DHT22;3085;49.444;11.054;2022-08-21T14:49:42;25.90;99.90
6110;DHT22;3085;49.444;11.054;2022-08-21T14:52:09;25.40;99.90
6110;DHT22;3085;49.444;11.054;2022-08-21T14:54:36;25.30;99.90
6110;DHT22;3085;49.444;11.054;2022-08-21T14:57:05;25.40;99.90
6110;DHT22;3085;49.444;11.054;2022-08-21T14:59:35;25.40;99.90
6110;DHT22;3085;49.444;11.054;2022-08-21T15:02:05;25.60;99.90
6110;DHT22;3085;49.444;11.054;2022-08-21T15:04:32;25.70;99.90
6110;DHT22;3085;49.444;11.054;2022-08-21T15:07:00;25.70;99.90
6110;DHT22;3085;49.444;11.054;2022-08-21T15:09:27;26.00;99.90
6110;DHT22;3085;49.444;11.054;2022-08-21T15:11:57;25.90;99.90
6110;DHT22;3085;49.444;11.054;2022-08-21T15:14:27;25.70;99.90
6110;DHT22;3085;49.444;11.054;2022-08-21T15:16:54;25.60;99.90
6110;DHT22;3085;49.444;11.054;2022-08-21T15:19:23;25.80;99.90
6110;DHT22;3085;49.444;11.054;2022-08-21T15:21:50;25.70;99.90
6110;DHT22;3085;49.444;11.054;2022-08-21T15:24:17;25.90;99.90
6110;DHT22;3085;49.444;11.054;2022-08-21T15:26:45;25.80;99.90
6110;DHT22;3085;49.444;11.054;2022-08-21T15:29:18;25.80;99.90
6110;DHT22;3085;49.444;11.054;2022-08-21T15:31:51;25.90;99.90
6110;DHT22;3085;49.444;11.054;2022-08-21T15:34:19;26.10;99.90
6110;DHT22;3085;49.444;11.054;2022-08-21T15:36:48;26.00;99.90
6110;DHT22;3085;49.444;11.054;2022-08-21T15:39:15;25.90;99.90
6110;DHT22;3085;49.444;11.054;2022-08-21T15:41:44;26.00;99.90
6110;DHT22;3085;49.444;11.054;2022-08-21T15:44:12;26.20;99.90
6110;DHT22;3085;49.444;11.054;2022-08-21T15:46:40;26.20;99.90
6110;DHT22;3085;49.444;11.054;2022-08-21T15:49:10;26.30;99.90
6110;DHT22;3085;49.444;11.054;2022-08-21T15:51:37;26.40;99.90
6110;DHT22;3085;49.444;11.054;2022-08-21T15:54:05;26.30;99.90
6110;DHT22;3085;49.444;11.054;2022-08-21T15:56:34;26.30;99.90
6110;DHT22;3085;49.444;11.054;2022-08-21T15:59:04;26.40;99.90
6110;DHT22;3085;49.444;11.054;2022-08-21T16:01:32;26.40;99.90
6110;DHT22;3085;49.444;11.054;2022-08-21T16:04:02;26.30;99.90